createdAt,value
2018-09-15T00:01:07.314Z,14.97
2018-09-15T00:02:07.368Z,14.97
2018-09-15T00:04:00.353Z,15.00
2018-09-15T00:05:00.418Z,15.00
2018-09-15T00:06:53.412Z,14.91
2018-09-15T00:07:53.469Z,14.88
2018-09-15T00:09:46.478Z,14.81
2018-09-15T00:10:46.532Z,14.77
2018-09-15T00:12:39.527Z,14.72
2018-09-15T00:13:39.576Z,14.79
2018-09-15T00:15:32.571Z,14.70
2018-09-15T00:16:32.622Z,14.62
2018-09-15T00:18:25.613Z,14.60
2018-09-15T00:19:25.671Z,14.59
2018-09-15T00:21:18.670Z,14.58
2018-09-15T00:22:18.727Z,14.41
2018-09-15T00:24:11.717Z,14.50
2018-09-15T00:25:11.776Z,14.40
2018-09-15T00:27:04.772Z,14.43
2018-09-15T00:28:04.824Z,14.40
2018-09-15T00:29:58.327Z,14.35
2018-09-15T00:30:58.380Z,14.37
2018-09-15T00:32:51.374Z,14.26
2018-09-15T00:33:51.429Z,14.32
2018-09-15T00:35:44.434Z,14.37
2018-09-15T00:36:44.478Z,14.22
2018-09-15T00:38:37.460Z,14.20
2018-09-15T00:39:37.523Z,14.23
2018-09-15T00:41:30.511Z,14.20
2018-09-15T00:42:30.567Z,14.17
2018-09-15T00:44:23.562Z,14.17
2018-09-15T00:45:23.622Z,14.14
2018-09-15T00:47:16.619Z,14.11
2018-09-15T00:48:16.672Z,14.18
2018-09-15T00:50:09.659Z,14.04
2018-09-15T00:51:09.720Z,14.08
2018-09-15T00:53:02.715Z,14.10
2018-09-15T00:54:02.771Z,14.10
2018-09-15T00:55:55.756Z,14.07
2018-09-15T00:56:55.818Z,14.12
2018-09-15T00:58:48.811Z,14.12
2018-09-15T00:59:48.915Z,14.04
2018-09-15T01:01:41.862Z,14.17
2018-09-15T01:02:41.912Z,14.10
2018-09-15T01:04:34.914Z,14.11
2018-09-15T01:05:34.970Z,13.99
2018-09-15T01:07:27.968Z,14.04
2018-09-15T01:08:28.019Z,14.10
2018-09-15T01:10:21.007Z,14.10
2018-09-15T01:11:21.067Z,14.07
2018-09-15T01:13:14.061Z,13.93
2018-09-15T01:14:14.238Z,14.03
2018-09-15T01:16:07.100Z,14.05
2018-09-15T01:17:07.164Z,13.99
2018-09-15T01:19:00.162Z,13.97
2018-09-15T01:20:00.264Z,13.92
2018-09-15T01:21:53.199Z,13.93
2018-09-15T01:22:53.260Z,13.86
2018-09-15T01:24:46.261Z,13.92
2018-09-15T01:25:46.313Z,13.89
2018-09-15T01:27:39.308Z,13.87
2018-09-15T01:28:39.360Z,13.85
2018-09-15T01:30:32.348Z,13.85
2018-09-15T01:31:32.410Z,13.75
2018-09-15T01:33:25.406Z,13.68
2018-09-15T01:34:25.456Z,13.72
2018-09-15T01:36:18.445Z,13.70
2018-09-15T01:37:18.504Z,13.68
2018-09-15T01:39:11.494Z,13.70
2018-09-15T01:40:11.549Z,13.67
2018-09-15T01:42:04.532Z,13.68
2018-09-15T01:43:04.595Z,13.62
2018-09-15T01:44:57.589Z,13.72
2018-09-15T01:45:57.641Z,13.68
2018-09-15T01:47:50.638Z,13.54
2018-09-15T01:48:50.695Z,13.60
2018-09-15T01:50:43.686Z,13.56
2018-09-15T01:51:43.743Z,13.57
2018-09-15T01:53:36.739Z,13.53
2018-09-15T01:54:36.791Z,13.52
2018-09-15T01:56:29.783Z,13.41
2018-09-15T01:57:29.877Z,13.49
2018-09-15T01:59:22.836Z,13.47
2018-09-15T02:00:22.895Z,13.52
2018-09-15T02:02:15.882Z,13.52
2018-09-15T02:03:15.948Z,13.49
2018-09-15T02:05:08.941Z,13.49
2018-09-15T02:06:08.993Z,13.44
2018-09-15T02:08:02.193Z,13.42
2018-09-15T02:09:02.046Z,13.42
2018-09-15T02:10:55.029Z,13.49
2018-09-15T02:11:55.091Z,13.53
2018-09-15T02:13:48.089Z,13.46
2018-09-15T02:14:48.148Z,13.42
2018-09-15T02:16:41.142Z,13.46
2018-09-15T02:17:41.191Z,13.47
2018-09-15T02:19:34.183Z,13.31
2018-09-15T02:20:34.238Z,13.25
2018-09-15T02:22:27.235Z,13.31
2018-09-15T02:23:27.286Z,13.23
2018-09-15T02:25:20.275Z,13.16
2018-09-15T02:26:20.328Z,13.15
2018-09-15T02:28:13.316Z,13.13
2018-09-15T02:29:13.377Z,13.11
2018-09-15T02:31:06.374Z,13.08
2018-09-15T02:32:06.432Z,13.12
2018-09-15T02:33:59.428Z,13.11
2018-09-15T02:34:59.483Z,13.01
2018-09-15T02:36:52.477Z,12.97
2018-09-15T02:37:52.537Z,13.01
2018-09-15T02:39:45.531Z,13.01
2018-09-15T02:40:45.586Z,13.04
2018-09-15T02:42:38.570Z,13.00
2018-09-15T02:43:38.630Z,12.94
2018-09-15T02:45:31.625Z,12.87
2018-09-15T02:46:31.678Z,13.00
2018-09-15T02:48:24.670Z,12.90
2018-09-15T02:49:24.727Z,12.97
2018-09-15T02:51:17.722Z,12.82
2018-09-15T02:52:17.777Z,12.91
2018-09-15T02:54:10.783Z,12.86
2018-09-15T02:55:10.822Z,12.82
2018-09-15T02:57:03.809Z,12.90
2018-09-15T02:58:03.871Z,12.87
2018-09-15T02:59:56.865Z,12.85
2018-09-15T03:00:56.920Z,12.86
2018-09-15T03:02:49.910Z,12.83
2018-09-15T03:03:49.960Z,12.90
2018-09-15T03:05:42.967Z,12.79
2018-09-15T03:06:43.022Z,12.73
2018-09-15T03:08:36.016Z,12.83
2018-09-15T03:09:36.072Z,12.80
2018-09-15T03:11:29.073Z,12.87
2018-09-15T03:12:29.124Z,12.80
2018-09-15T03:14:22.108Z,12.82
2018-09-15T03:15:22.170Z,12.75
2018-09-15T03:17:15.161Z,12.80
2018-09-15T03:18:15.214Z,12.86
2018-09-15T03:20:08.208Z,12.78
2018-09-15T03:21:08.257Z,12.75
2018-09-15T03:23:01.250Z,12.73
2018-09-15T03:24:01.300Z,12.78
2018-09-15T03:25:54.295Z,12.73
2018-09-15T03:26:54.355Z,12.73
2018-09-15T03:28:47.339Z,12.67
2018-09-15T03:29:47.392Z,12.67
2018-09-15T03:31:40.384Z,12.75
2018-09-15T03:32:40.445Z,12.73
2018-09-15T03:34:33.428Z,12.73
2018-09-15T03:35:33.489Z,12.70
2018-09-15T03:37:26.479Z,12.62
2018-09-15T03:38:26.532Z,12.61
2018-09-15T03:40:19.524Z,12.67
2018-09-15T03:41:19.637Z,12.49
2018-09-15T03:43:12.567Z,12.50
2018-09-15T03:44:12.623Z,12.57
2018-09-15T03:46:05.619Z,12.45
2018-09-15T03:47:05.675Z,12.43
2018-09-15T03:48:58.655Z,12.43
2018-09-15T03:49:58.714Z,12.45
2018-09-15T03:51:51.711Z,12.43
2018-09-15T03:52:51.758Z,12.35
2018-09-15T03:54:44.754Z,12.40
2018-09-15T03:55:44.809Z,12.37
2018-09-15T03:57:37.804Z,12.36
2018-09-15T03:58:37.857Z,12.40
2018-09-15T04:00:30.853Z,12.36
2018-09-15T04:01:30.907Z,12.36
2018-09-15T04:03:23.905Z,12.36
2018-09-15T04:04:23.963Z,12.37
2018-09-15T04:06:16.962Z,12.40
2018-09-15T04:07:17.011Z,12.29
2018-09-15T04:09:09.996Z,12.36
2018-09-15T04:10:10.059Z,12.39
2018-09-15T04:12:03.051Z,12.43
2018-09-15T04:13:03.104Z,12.43
2018-09-15T04:14:56.086Z,12.42
2018-09-15T04:15:56.172Z,12.43
2018-09-15T04:17:49.145Z,12.55
2018-09-15T04:18:49.197Z,12.47
2018-09-15T04:20:42.185Z,12.40
2018-09-15T04:21:42.246Z,12.46
2018-09-15T04:23:35.241Z,12.50
2018-09-15T04:24:35.295Z,12.46
2018-09-15T04:26:28.282Z,12.43
2018-09-15T04:27:28.335Z,12.47
2018-09-15T04:29:21.834Z,12.45
2018-09-15T04:30:21.885Z,12.42
2018-09-15T04:32:14.883Z,12.42
2018-09-15T04:33:14.938Z,12.40
2018-09-15T04:35:07.923Z,12.39
2018-09-15T04:36:07.984Z,12.39
2018-09-15T04:38:00.977Z,12.40
2018-09-15T04:39:01.033Z,12.39
2018-09-15T04:40:54.020Z,12.40
2018-09-15T04:41:54.082Z,12.37
2018-09-15T04:43:47.076Z,12.40
2018-09-15T04:44:47.130Z,12.43
2018-09-15T04:46:40.116Z,12.42
2018-09-15T04:47:40.179Z,12.39
2018-09-15T04:49:33.179Z,12.29
2018-09-15T04:50:33.218Z,12.28
2018-09-15T04:52:26.211Z,12.27
2018-09-15T04:53:26.267Z,12.24
2018-09-15T04:55:19.262Z,12.28
2018-09-15T04:56:19.313Z,12.22
2018-09-15T04:58:12.307Z,12.21
2018-09-15T04:59:12.359Z,12.20
2018-09-15T05:01:05.347Z,12.22
2018-09-15T05:02:05.407Z,12.10
2018-09-15T05:03:58.400Z,12.09
2018-09-15T05:04:58.452Z,12.04
2018-09-15T05:06:51.435Z,12.09
2018-09-15T05:07:51.499Z,12.12
2018-09-15T05:09:44.486Z,12.20
2018-09-15T05:10:44.544Z,12.07
2018-09-15T05:12:37.720Z,12.21
2018-09-15T05:13:37.591Z,12.09
2018-09-15T05:15:30.592Z,12.12
2018-09-15T05:16:30.641Z,12.10
2018-09-15T05:18:23.625Z,12.22
2018-09-15T05:19:23.684Z,12.21
2018-09-15T05:21:16.672Z,12.24
2018-09-15T05:22:16.725Z,12.20
2018-09-15T05:24:09.726Z,12.21
2018-09-15T05:25:09.773Z,12.24
2018-09-15T05:27:02.755Z,12.24
2018-09-15T05:28:02.817Z,12.27
2018-09-15T05:29:56.319Z,12.27
2018-09-15T05:30:56.369Z,12.25
2018-09-15T05:32:49.355Z,12.27
2018-09-15T05:33:49.415Z,12.28
2018-09-15T05:35:42.409Z,12.28
2018-09-15T05:36:42.461Z,12.28
2018-09-15T05:38:35.455Z,12.40
2018-09-15T05:39:35.516Z,12.28
2018-09-15T05:41:28.516Z,12.36
2018-09-15T05:42:28.560Z,12.37
2018-09-15T05:44:21.546Z,12.32
2018-09-15T05:45:21.607Z,12.31
2018-09-15T05:47:14.601Z,12.37
2018-09-15T05:48:14.656Z,12.43
2018-09-15T05:50:07.674Z,12.57
2018-09-15T05:51:07.717Z,12.50
2018-09-15T05:53:00.707Z,12.67
2018-09-15T05:54:00.768Z,12.67
2018-09-15T05:55:53.815Z,12.65
2018-09-15T05:56:53.819Z,12.75
2018-09-15T05:58:46.803Z,12.82
2018-09-15T05:59:46.865Z,12.87
2018-09-15T06:01:39.911Z,12.91
2018-09-15T06:02:39.906Z,12.90
2018-09-15T06:04:32.895Z,12.97
2018-09-15T06:05:32.957Z,12.93
2018-09-15T06:07:25.950Z,13.04
2018-09-15T06:08:26.001Z,13.09
2018-09-15T06:10:18.980Z,13.22
2018-09-15T06:11:19.044Z,13.16
2018-09-15T06:13:12.040Z,13.30
2018-09-15T06:14:12.088Z,13.33
2018-09-15T06:16:05.082Z,13.47
2018-09-15T06:17:05.135Z,13.50
2018-09-15T06:18:58.119Z,13.62
2018-09-15T06:19:58.179Z,13.63
2018-09-15T06:21:51.170Z,13.68
2018-09-15T06:22:51.226Z,13.78
2018-09-15T06:24:44.209Z,13.95
2018-09-15T06:25:44.268Z,13.95
2018-09-15T06:27:37.262Z,14.14
2018-09-15T06:28:37.311Z,14.22
2018-09-15T06:30:30.804Z,14.43
2018-09-15T06:31:30.861Z,14.54
2018-09-15T06:33:23.862Z,14.77
2018-09-15T06:34:23.908Z,14.94
2018-09-15T06:36:16.934Z,15.18
2018-09-15T06:37:16.956Z,15.19
2018-09-15T06:39:09.948Z,15.37
2018-09-15T06:40:09.998Z,15.72
2018-09-15T06:42:02.989Z,16.78
2018-09-15T06:43:03.043Z,17.05
2018-09-15T06:44:56.028Z,18.19
2018-09-15T06:45:56.088Z,18.44
2018-09-15T06:47:49.084Z,19.11
2018-09-15T06:48:49.144Z,20.04
2018-09-15T06:50:42.131Z,20.58
2018-09-15T06:51:42.191Z,20.59
2018-09-15T06:53:35.239Z,20.82
2018-09-15T06:54:35.247Z,20.48
2018-09-15T06:56:28.233Z,19.22
2018-09-15T06:57:28.298Z,18.89
2018-09-15T06:59:21.292Z,20.07
2018-09-15T07:00:21.348Z,20.25
2018-09-15T07:02:14.337Z,20.70
2018-09-15T07:03:14.420Z,21.42
2018-09-15T07:05:07.408Z,21.45
2018-09-15T07:06:07.465Z,21.77
2018-09-15T07:08:00.465Z,21.62
2018-09-15T07:09:00.521Z,21.61
2018-09-15T07:10:53.517Z,21.43
2018-09-15T07:11:53.583Z,21.95
2018-09-15T07:13:46.588Z,22.22
2018-09-15T07:14:46.649Z,22.10
2018-09-15T07:16:39.640Z,21.57
2018-09-15T07:17:39.707Z,21.57
2018-09-15T07:19:32.706Z,23.28
2018-09-15T07:20:32.764Z,23.66
2018-09-15T07:22:25.776Z,24.76
2018-09-15T07:23:25.820Z,24.36
2018-09-15T07:25:18.820Z,23.69
2018-09-15T07:26:18.878Z,24.35
2018-09-15T07:28:11.893Z,26.45
2018-09-15T07:29:11.943Z,24.66
2018-09-15T07:31:05.446Z,23.54
2018-09-15T07:32:05.517Z,23.02
2018-09-15T07:33:58.517Z,23.44
2018-09-15T07:34:58.580Z,23.47
2018-09-15T07:36:51.576Z,24.55
2018-09-15T07:37:51.643Z,24.86
2018-09-15T07:39:44.647Z,25.93
2018-09-15T07:40:44.706Z,26.44
2018-09-15T07:42:37.705Z,27.12
2018-09-15T07:43:37.773Z,27.49
2018-09-15T07:45:30.777Z,26.55
2018-09-15T07:46:30.838Z,26.38
2018-09-15T07:48:23.848Z,25.73
2018-09-15T07:49:23.928Z,25.66
2018-09-15T07:51:16.937Z,25.98
2018-09-15T07:52:16.988Z,25.07
2018-09-15T07:54:09.994Z,26.58
2018-09-15T07:55:10.057Z,26.51
2018-09-15T07:57:03.063Z,24.74
2018-09-15T07:58:03.131Z,23.28
2018-09-15T07:59:56.187Z,22.11
2018-09-15T08:00:56.243Z,21.79
2018-09-15T08:02:49.245Z,21.46
2018-09-15T08:03:49.313Z,21.00
2018-09-15T08:05:42.324Z,20.47
2018-09-15T08:06:42.384Z,20.52
2018-09-15T08:08:35.382Z,20.58
2018-09-15T08:09:35.449Z,20.39
2018-09-15T08:11:28.465Z,20.25
2018-09-15T08:12:28.520Z,20.11
2018-09-15T08:14:21.516Z,20.14
2018-09-15T08:15:21.584Z,20.14
2018-09-15T08:17:14.588Z,20.25
2018-09-15T08:18:14.646Z,20.07
2018-09-15T08:20:07.654Z,20.00
2018-09-15T08:21:07.714Z,19.92
2018-09-15T08:23:00.721Z,19.96
2018-09-15T08:24:00.780Z,19.82
2018-09-15T08:25:53.785Z,20.00
2018-09-15T08:26:53.843Z,19.95
2018-09-15T08:28:46.870Z,19.91
2018-09-15T08:29:46.937Z,19.77
2018-09-15T08:31:39.940Z,19.67
2018-09-15T08:32:39.997Z,19.79
2018-09-15T08:34:33.001Z,19.82
2018-09-15T08:35:33.067Z,19.85
2018-09-15T08:37:26.081Z,19.88
2018-09-15T08:38:26.151Z,19.77
2018-09-15T08:40:19.141Z,19.88
2018-09-15T08:41:19.249Z,19.81
2018-09-15T08:43:12.194Z,19.82
2018-09-15T08:44:12.259Z,19.88
2018-09-15T08:46:05.265Z,19.79
2018-09-15T08:47:05.320Z,19.84
2018-09-15T08:48:58.319Z,19.41
2018-09-15T08:49:58.383Z,19.09
2018-09-15T08:51:51.388Z,18.77
2018-09-15T08:52:51.445Z,18.73
2018-09-15T08:54:44.440Z,18.65
2018-09-15T08:55:44.503Z,18.80
2018-09-15T08:57:37.501Z,18.86
2018-09-15T08:58:37.556Z,18.89
2018-09-15T09:00:30.550Z,18.86
2018-09-15T09:01:30.613Z,19.08
2018-09-15T09:03:23.618Z,19.39
2018-09-15T09:04:23.673Z,19.40
2018-09-15T09:06:16.677Z,19.86
2018-09-15T09:07:16.734Z,20.22
2018-09-15T09:09:09.731Z,20.67
2018-09-15T09:10:09.828Z,20.82
2018-09-15T09:12:02.797Z,21.22
2018-09-15T09:13:02.855Z,21.21
2018-09-15T09:14:55.850Z,21.14
2018-09-15T09:15:55.914Z,21.05
2018-09-15T09:17:48.921Z,20.92
2018-09-15T09:18:48.973Z,20.70
2018-09-15T09:20:41.977Z,20.81
2018-09-15T09:21:42.032Z,20.77
2018-09-15T09:23:35.042Z,20.85
2018-09-15T09:24:35.107Z,20.92
2018-09-15T09:26:28.301Z,21.33
2018-09-15T09:27:28.173Z,21.36
2018-09-15T09:29:21.167Z,21.36
2018-09-15T09:30:21.230Z,21.45
2018-09-15T09:32:14.271Z,21.46
2018-09-15T09:33:14.353Z,21.39
2018-09-15T09:35:07.805Z,21.21
2018-09-15T09:36:07.882Z,21.46
2018-09-15T09:38:00.878Z,21.21
2018-09-15T09:39:00.936Z,21.36
2018-09-15T09:40:53.933Z,21.30
2018-09-15T09:41:54.002Z,21.32
2018-09-15T09:43:47.002Z,21.29
2018-09-15T09:44:47.061Z,21.37
2018-09-15T09:46:40.064Z,21.66
2018-09-15T09:47:40.125Z,21.60
2018-09-15T09:49:33.134Z,21.54
2018-09-15T09:50:33.194Z,21.57
2018-09-15T09:52:26.200Z,21.85
2018-09-15T09:53:26.253Z,21.93
2018-09-15T09:55:19.251Z,22.11
2018-09-15T09:56:19.315Z,22.22
2018-09-15T09:58:12.317Z,21.92
2018-09-15T09:59:12.376Z,21.58
2018-09-15T10:01:05.400Z,21.30
2018-09-15T10:02:05.435Z,21.11
2018-09-15T10:03:58.435Z,21.02
2018-09-15T10:04:58.497Z,20.97
2018-09-15T10:06:51.491Z,21.03
2018-09-15T10:07:51.559Z,21.02
2018-09-15T10:09:44.608Z,20.59
2018-09-15T10:10:44.617Z,20.56
2018-09-15T10:12:37.614Z,20.43
2018-09-15T10:13:37.676Z,20.44
2018-09-15T10:15:30.680Z,20.18
2018-09-15T10:16:30.741Z,20.14
2018-09-15T10:18:23.742Z,20.04
2018-09-15T10:19:23.804Z,20.06
2018-09-15T10:21:16.793Z,20.03
2018-09-15T10:22:16.857Z,20.04
2018-09-15T10:24:09.859Z,20.22
2018-09-15T10:25:09.920Z,20.43
2018-09-15T10:27:02.916Z,20.56
2018-09-15T10:28:02.979Z,20.72
2018-09-15T10:29:55.979Z,20.66
2018-09-15T10:30:56.036Z,20.52
2018-09-15T10:32:49.037Z,20.44
2018-09-15T10:33:49.104Z,20.39
2018-09-15T10:35:42.618Z,20.58
2018-09-15T10:36:42.671Z,20.74
2018-09-15T10:38:35.712Z,20.72
2018-09-15T10:39:35.732Z,20.74
2018-09-15T10:41:28.738Z,20.77
2018-09-15T10:42:28.796Z,20.80
2018-09-15T10:44:21.805Z,20.99
2018-09-15T10:45:21.856Z,21.12
2018-09-15T10:47:14.856Z,21.05
2018-09-15T10:48:14.919Z,21.15
2018-09-15T10:50:07.922Z,21.05
2018-09-15T10:51:07.985Z,21.03
2018-09-15T10:53:00.981Z,21.17
2018-09-15T10:54:01.043Z,21.35
2018-09-15T10:55:54.043Z,21.69
2018-09-15T10:56:54.099Z,21.91
2018-09-15T10:58:47.106Z,21.82
2018-09-15T10:59:47.160Z,21.92
2018-09-15T11:01:40.160Z,22.00
2018-09-15T11:02:40.218Z,21.91
2018-09-15T11:04:33.212Z,21.88
2018-09-15T11:05:33.277Z,21.79
2018-09-15T11:07:26.282Z,21.55
2018-09-15T11:08:26.340Z,21.43
2018-09-15T11:10:19.363Z,21.12
2018-09-15T11:11:19.399Z,21.17
2018-09-15T11:13:12.451Z,20.67
2018-09-15T11:14:12.469Z,20.56
2018-09-15T11:16:05.470Z,20.37
2018-09-15T11:17:05.530Z,20.25
2018-09-15T11:18:58.523Z,20.44
2018-09-15T11:19:58.592Z,20.34
2018-09-15T11:21:51.593Z,20.39
2018-09-15T11:22:51.719Z,20.39
2018-09-15T11:24:44.681Z,20.26
2018-09-15T11:25:44.750Z,20.21
2018-09-15T11:27:37.751Z,20.32
2018-09-15T11:28:37.833Z,20.31
2018-09-15T11:30:30.808Z,20.25
2018-09-15T11:31:30.877Z,20.28
2018-09-15T11:33:23.872Z,20.26
2018-09-15T11:34:23.928Z,20.24
2018-09-15T11:36:16.942Z,20.28
2018-09-15T11:37:16.987Z,20.22
2018-09-15T11:39:09.985Z,20.11
2018-09-15T11:40:10.048Z,20.18
2018-09-15T11:42:03.049Z,20.21
2018-09-15T11:43:03.107Z,20.37
2018-09-15T11:44:56.100Z,20.48
2018-09-15T11:45:56.166Z,20.56
2018-09-15T11:47:49.175Z,20.70
2018-09-15T11:48:49.221Z,20.82
2018-09-15T11:50:42.215Z,20.99
2018-09-15T11:51:42.277Z,21.09
2018-09-15T11:53:35.277Z,21.29
2018-09-15T11:54:35.336Z,21.24
2018-09-15T11:56:28.329Z,21.32
2018-09-15T11:57:28.396Z,21.32
2018-09-15T11:59:21.398Z,21.21
2018-09-15T12:00:21.458Z,21.20
2018-09-15T12:02:14.460Z,21.07
2018-09-15T12:03:14.520Z,21.11
2018-09-15T12:05:07.513Z,20.95
2018-09-15T12:06:07.575Z,20.78
2018-09-15T12:08:00.584Z,20.55
2018-09-15T12:09:00.643Z,20.58
2018-09-15T12:10:53.642Z,20.28
2018-09-15T12:11:53.708Z,20.28
2018-09-15T12:13:46.711Z,20.13
2018-09-15T12:14:46.768Z,20.14
2018-09-15T12:16:39.765Z,20.04
2018-09-15T12:17:39.827Z,20.02
2018-09-15T12:19:32.827Z,19.86
2018-09-15T12:20:32.892Z,19.85
2018-09-15T12:22:25.893Z,19.74
2018-09-15T12:23:25.947Z,19.63
2018-09-15T12:25:18.946Z,19.67
2018-09-15T12:26:19.003Z,19.71
2018-09-15T12:28:12.001Z,19.81
2018-09-15T12:29:12.059Z,19.77
2018-09-15T12:31:05.058Z,19.88
2018-09-15T12:32:05.121Z,19.95
2018-09-15T12:33:58.120Z,19.84
2018-09-15T12:34:58.178Z,19.84
2018-09-15T12:36:51.176Z,19.81
2018-09-15T12:37:51.237Z,19.84
2018-09-15T12:39:44.243Z,19.81
2018-09-15T12:40:44.294Z,19.94
2018-09-15T12:42:37.326Z,19.84
2018-09-15T12:43:37.350Z,19.92
2018-09-15T12:45:30.342Z,19.89
2018-09-15T12:46:30.405Z,20.03
2018-09-15T12:48:23.409Z,20.04
2018-09-15T12:49:23.467Z,20.16
2018-09-15T12:51:16.458Z,20.29
2018-09-15T12:52:16.594Z,20.50
2018-09-15T12:54:09.526Z,20.72
2018-09-15T12:55:09.584Z,21.00
2018-09-15T12:57:02.588Z,21.33
2018-09-15T12:58:02.643Z,21.46
2018-09-15T12:59:55.641Z,21.69
2018-09-15T13:00:55.699Z,21.75
2018-09-15T13:02:48.697Z,22.13
2018-09-15T13:03:48.757Z,22.08
2018-09-15T13:05:41.757Z,22.06
2018-09-15T13:06:41.814Z,22.07
2018-09-15T13:08:34.813Z,21.98
2018-09-15T13:09:34.872Z,21.95
2018-09-15T13:11:27.864Z,21.99
2018-09-15T13:12:27.933Z,22.00
2018-09-15T13:14:20.939Z,21.92
2018-09-15T13:15:21.009Z,21.93
2018-09-15T13:17:14.007Z,21.79
2018-09-15T13:18:14.075Z,21.75
2018-09-15T13:20:07.080Z,21.62
2018-09-15T13:21:07.137Z,21.73
2018-09-15T13:23:00.138Z,21.77
2018-09-15T13:24:00.210Z,21.82
2018-09-15T13:25:53.201Z,21.79
2018-09-15T13:26:53.264Z,21.64
2018-09-15T13:28:46.268Z,21.55
2018-09-15T13:29:46.498Z,21.50
2018-09-15T13:31:39.319Z,21.40
2018-09-15T13:32:39.383Z,21.32
2018-09-15T13:34:32.386Z,21.21
2018-09-15T13:35:32.444Z,21.11
2018-09-15T13:37:25.443Z,20.99
2018-09-15T13:38:25.514Z,20.92
2018-09-15T13:40:18.515Z,20.82
2018-09-15T13:41:18.572Z,20.84
2018-09-15T13:43:11.594Z,20.74
2018-09-15T13:44:11.636Z,20.66
2018-09-15T13:46:04.631Z,20.66
2018-09-15T13:47:04.699Z,20.58
2018-09-15T13:48:57.701Z,20.66
2018-09-15T13:49:57.761Z,20.74
2018-09-15T13:51:50.759Z,20.82
2018-09-15T13:52:50.822Z,20.87
2018-09-15T13:54:43.827Z,20.97
2018-09-15T13:55:43.882Z,20.78
2018-09-15T13:57:36.873Z,20.92
2018-09-15T13:58:36.939Z,20.97
2018-09-15T14:00:29.940Z,21.03
2018-09-15T14:01:29.995Z,21.06
2018-09-15T14:03:23.013Z,21.15
2018-09-15T14:04:23.058Z,21.18
2018-09-15T14:06:16.058Z,21.25
2018-09-15T14:07:16.120Z,21.24
2018-09-15T14:09:09.124Z,21.39
2018-09-15T14:10:09.181Z,21.32
2018-09-15T14:12:02.180Z,21.25
2018-09-15T14:13:02.245Z,21.35
2018-09-15T14:14:55.246Z,21.24
2018-09-15T14:15:55.308Z,21.32
2018-09-15T14:17:48.316Z,21.27
2018-09-15T14:18:48.362Z,21.33
2018-09-15T14:20:41.368Z,21.29
2018-09-15T14:21:41.425Z,21.29
2018-09-15T14:23:34.436Z,21.32
2018-09-15T14:24:34.480Z,21.37
2018-09-15T14:26:27.473Z,21.25
2018-09-15T14:27:27.539Z,21.39
2018-09-15T14:29:20.540Z,21.37
2018-09-15T14:30:20.597Z,21.39
2018-09-15T14:32:13.591Z,21.46
2018-09-15T14:33:13.655Z,21.51
2018-09-15T14:35:06.655Z,21.45
2018-09-15T14:36:06.714Z,21.52
2018-09-15T14:37:59.706Z,21.89
2018-09-15T14:38:59.771Z,21.91
2018-09-15T14:40:52.772Z,21.96
2018-09-15T14:41:52.828Z,21.91
2018-09-15T14:43:45.892Z,21.82
2018-09-15T14:44:45.887Z,21.76
2018-09-15T14:46:38.877Z,21.60
2018-09-15T14:47:38.943Z,21.61
2018-09-15T14:49:31.942Z,21.50
2018-09-15T14:50:31.998Z,21.54
2018-09-15T14:52:24.994Z,21.52
2018-09-15T14:53:25.066Z,21.50
2018-09-15T14:55:18.080Z,21.54
2018-09-15T14:56:18.183Z,21.46
2018-09-15T14:58:11.144Z,21.51
2018-09-15T14:59:11.211Z,21.62
2018-09-15T15:01:04.220Z,21.57
2018-09-15T15:02:04.279Z,21.72
2018-09-15T15:03:57.294Z,21.79
2018-09-15T15:04:57.338Z,21.89
2018-09-15T15:06:50.347Z,22.00
2018-09-15T15:07:50.407Z,22.11
2018-09-15T15:09:43.407Z,22.18
2018-09-15T15:10:43.468Z,22.28
2018-09-15T15:12:36.491Z,22.57
2018-09-15T15:13:36.590Z,22.63
2018-09-15T15:15:29.537Z,22.57
2018-09-15T15:16:29.593Z,22.41
2018-09-15T15:18:22.603Z,22.07
2018-09-15T15:19:22.669Z,22.15
2018-09-15T15:21:15.676Z,22.22
2018-09-15T15:22:15.739Z,22.13
2018-09-15T15:24:08.750Z,22.15
2018-09-15T15:25:08.804Z,22.00
2018-09-15T15:27:01.795Z,21.82
2018-09-15T15:28:01.859Z,21.67
2018-09-15T15:29:54.869Z,21.45
2018-09-15T15:30:54.928Z,21.37
2018-09-15T15:32:47.927Z,21.25
2018-09-15T15:33:47.993Z,21.17
2018-09-15T15:35:40.993Z,21.03
2018-09-15T15:36:41.056Z,21.02
2018-09-15T15:38:34.060Z,20.87
2018-09-15T15:39:34.120Z,20.88
2018-09-15T15:41:27.117Z,20.88
2018-09-15T15:42:27.174Z,20.93
2018-09-15T15:44:20.177Z,20.93
2018-09-15T15:45:20.231Z,20.97
2018-09-15T15:47:13.230Z,20.97
2018-09-15T15:48:13.295Z,20.96
2018-09-15T15:50:06.801Z,20.95
2018-09-15T15:51:06.856Z,20.96
2018-09-15T15:52:59.859Z,20.96
2018-09-15T15:53:59.923Z,20.97
2018-09-15T15:55:52.923Z,21.02
2018-09-15T15:56:52.993Z,20.95
2018-09-15T15:58:46.140Z,20.96
2018-09-15T15:59:46.049Z,20.93
2018-09-15T16:01:39.098Z,20.96
2018-09-15T16:02:39.120Z,20.96
2018-09-15T16:04:32.160Z,21.00
2018-09-15T16:05:32.156Z,20.96
2018-09-15T16:07:25.164Z,20.97
2018-09-15T16:08:25.228Z,20.93
2018-09-15T16:10:18.228Z,20.97
2018-09-15T16:11:18.388Z,20.99
2018-09-15T16:13:11.282Z,20.95
2018-09-15T16:14:11.346Z,20.99
2018-09-15T16:16:04.349Z,20.95
2018-09-15T16:17:04.432Z,20.81
2018-09-15T16:18:57.401Z,20.84
2018-09-15T16:19:57.468Z,20.92
2018-09-15T16:21:50.474Z,20.95
2018-09-15T16:22:50.528Z,20.88
2018-09-15T16:24:43.535Z,20.82
2018-09-15T16:25:43.596Z,20.70
2018-09-15T16:27:36.579Z,20.88
2018-09-15T16:28:36.643Z,20.72
2018-09-15T16:30:29.648Z,20.75
2018-09-15T16:31:29.700Z,20.74
2018-09-15T16:33:22.698Z,20.60
2018-09-15T16:34:22.763Z,20.66
2018-09-15T16:36:15.762Z,20.62
2018-09-15T16:37:15.849Z,20.52
2018-09-15T16:39:09.325Z,20.52
2018-09-15T16:40:09.385Z,20.52
2018-09-15T16:42:02.385Z,20.36
2018-09-15T16:43:02.446Z,20.40
2018-09-15T16:44:55.472Z,20.26
2018-09-15T16:45:55.506Z,20.21
2018-09-15T16:47:48.505Z,20.13
2018-09-15T16:48:48.560Z,20.06
2018-09-15T16:50:41.563Z,20.06
2018-09-15T16:51:41.623Z,19.94
2018-09-15T16:53:34.621Z,19.86
2018-09-15T16:54:34.680Z,20.00
2018-09-15T16:56:27.679Z,19.99
2018-09-15T16:57:27.735Z,20.04
2018-09-15T16:59:20.729Z,19.86
2018-09-15T17:00:20.795Z,19.95
2018-09-15T17:02:13.797Z,20.00
2018-09-15T17:03:13.926Z,19.85
2018-09-15T17:05:06.854Z,19.77
2018-09-15T17:06:06.909Z,19.74
2018-09-15T17:07:59.912Z,19.71
2018-09-15T17:08:59.973Z,19.58
2018-09-15T17:10:52.972Z,19.45
2018-09-15T17:11:53.030Z,19.48
2018-09-15T17:13:46.026Z,19.44
2018-09-15T17:14:46.092Z,19.34
2018-09-15T17:16:39.202Z,19.21
2018-09-15T17:17:39.147Z,19.08
2018-09-15T17:19:32.142Z,19.12
2018-09-15T17:20:32.205Z,19.08
2018-09-15T17:22:25.274Z,18.99
2018-09-15T17:23:25.266Z,18.95
2018-09-15T17:25:18.285Z,19.02
2018-09-15T17:26:18.330Z,19.00
2018-09-15T17:28:11.325Z,18.99
2018-09-15T17:29:11.377Z,18.96
2018-09-15T17:31:04.429Z,18.96
2018-09-15T17:32:04.438Z,18.96
2018-09-15T17:33:57.430Z,18.90
2018-09-15T17:34:57.495Z,18.88
2018-09-15T17:36:50.549Z,18.92
2018-09-15T17:37:50.558Z,18.81
2018-09-15T17:39:44.118Z,18.88
2018-09-15T17:40:44.123Z,18.81
2018-09-15T17:42:37.118Z,18.75
2018-09-15T17:43:37.176Z,18.65
2018-09-15T17:45:30.240Z,18.58
2018-09-15T17:46:30.227Z,18.53
2018-09-15T17:48:23.225Z,18.55
2018-09-15T17:49:23.280Z,18.41
2018-09-15T17:51:16.280Z,18.29
2018-09-15T17:52:16.338Z,18.40
2018-09-15T17:54:09.327Z,18.43
2018-09-15T17:55:09.392Z,18.35
2018-09-15T17:57:02.390Z,18.29
2018-09-15T17:58:02.447Z,18.38
2018-09-15T17:59:55.442Z,18.34
2018-09-15T18:00:55.503Z,18.31
2018-09-15T18:02:48.509Z,18.34
2018-09-15T18:03:48.566Z,18.45
2018-09-15T18:05:41.568Z,18.55
2018-09-15T18:06:41.626Z,18.52
2018-09-15T18:08:34.623Z,18.43
2018-09-15T18:09:34.713Z,18.41
2018-09-15T18:11:27.678Z,18.43
2018-09-15T18:12:27.733Z,18.33
2018-09-15T18:14:20.722Z,18.25
2018-09-15T18:15:20.797Z,18.25
2018-09-15T18:17:13.786Z,18.23
2018-09-15T18:18:13.844Z,18.16
2018-09-15T18:20:06.830Z,18.18
2018-09-15T18:21:06.893Z,18.04
2018-09-15T18:22:59.892Z,18.07
2018-09-15T18:23:59.951Z,18.11
2018-09-15T18:25:52.945Z,17.92
2018-09-15T18:26:53.012Z,17.95
2018-09-15T18:28:46.006Z,17.97
2018-09-15T18:29:46.065Z,17.92
2018-09-15T18:31:39.074Z,17.85
2018-09-15T18:32:39.118Z,17.86
2018-09-15T18:34:32.106Z,17.82